Time;durP1;ratioP1;P1;durP2;ratioP2;P2;SDS_P1;SDS_P2;PMS_P1;PMS_P2;Temp;Humidity;BMP_temperature;BMP_pressure;BME280_temperature;BME280_humidity;BME280_pressure;Samples;Min_cycle;Max_cycle;Signal;HPM_P1;HPM_P2
2023/12/19 00:00:46;;;;;;;3.95;2.60;;;21.10;38.90;;;;;;5060295;28;20057;-51
2023/12/19 00:03:12;;;;;;;3.70;2.88;;;21.00;38.80;;;;;;5055413;28;20116;-49
2023/12/19 00:05:41;;;;;;;4.43;3.10;;;21.00;38.80;;;;;;5057986;28;20119;-52
2023/12/19 00:08:07;;;;;;;4.43;3.00;;;21.00;38.90;;;;;;5062923;28;20320;-49
2023/12/19 00:10:34;;;;;;;4.20;2.95;;;21.00;38.90;;;;;;5074640;28;20086;-49
2023/12/19 00:13:00;;;;;;;4.43;2.90;;;21.00;38.90;;;;;;5072487;28;20107;-52
2023/12/19 00:15:26;;;;;;;4.85;3.38;;;21.00;38.90;;;;;;5067022;28;20040;-51
2023/12/19 00:17:52;;;;;;;3.85;2.65;;;21.00;38.90;;;;;;5047016;28;20032;-55
2023/12/19 00:20:18;;;;;;;5.28;3.30;;;21.00;38.90;;;;;;5054682;28;20043;-55
2023/12/19 00:22:44;;;;;;;3.67;2.92;;;21.00;39.00;;;;;;5056561;28;20478;-47
2023/12/19 00:25:10;;;;;;;3.95;2.80;;;20.90;38.90;;;;;;5074563;28;20078;-49
2023/12/19 00:27:35;;;;;;;4.13;2.78;;;21.00;39.00;;;;;;5061008;28;20083;-53
2023/12/19 00:30:01;;;;;;;4.40;2.88;;;20.90;39.00;;;;;;5051975;28;20462;-52
2023/12/19 00:32:27;;;;;;;3.15;2.60;;;20.90;39.00;;;;;;5069538;28;20040;-50
2023/12/19 00:34:53;;;;;;;3.80;2.85;;;20.90;39.00;;;;;;5059533;28;20025;-52
2023/12/19 00:37:19;;;;;;;3.55;2.47;;;20.90;39.00;;;;;;5077299;28;20044;-53
2023/12/19 00:39:45;;;;;;;5.07;2.97;;;20.90;39.00;;;;;;5065213;28;20033;-52
2023/12/19 00:42:11;;;;;;;3.92;2.70;;;20.90;39.00;;;;;;5067512;28;20032;-50
2023/12/19 00:44:37;;;;;;;3.45;2.72;;;20.90;39.10;;;;;;5063153;28;20033;-53
2023/12/19 00:47:03;;;;;;;3.63;2.70;;;20.90;39.10;;;;;;5066916;28;20032;-50
2023/12/19 00:49:29;;;;;;;3.75;2.65;;;20.90;39.10;;;;;;5058997;28;20086;-50
2023/12/19 00:51:55;;;;;;;3.33;2.55;;;20.90;39.10;;;;;;5065758;28;20091;-56
2023/12/19 00:54:22;;;;;;;4.43;3.03;;;20.90;39.10;;;;;;5077351;28;20073;-52
2023/12/19 00:56:48;;;;;;;3.88;2.90;;;20.90;39.10;;;;;;5058339;28;20086;-52
2023/12/19 00:59:14;;;;;;;3.75;2.90;;;20.90;39.20;;;;;;5057968;28;20028;-48
2023/12/19 01:01:39;;;;;;;4.55;3.10;;;20.80;39.10;;;;;;5057149;28;20024;-51
2023/12/19 01:04:06;;;;;;;4.03;2.70;;;20.80;39.20;;;;;;5057698;28;20029;-49
2023/12/19 01:06:32;;;;;;;4.20;2.95;;;20.80;39.20;;;;;;5071880;28;20033;-55
2023/12/19 01:08:57;;;;;;;5.03;2.90;;;20.80;39.20;;;;;;5065662;28;20362;-50
2023/12/19 01:11:23;;;;;;;4.35;2.72;;;20.80;39.20;;;;;;5078412;28;20052;-46
2023/12/19 01:13:50;;;;;;;3.35;2.42;;;20.80;39.20;;;;;;5077792;28;20047;-47
2023/12/19 01:16:16;;;;;;;2.88;2.35;;;20.80;39.20;;;;;;5062450;28;20033;-55
2023/12/19 01:18:42;;;;;;;3.65;2.85;;;20.80;39.20;;;;;;5068927;28;20052;-51
2023/12/19 01:21:08;;;;;;;4.30;2.72;;;20.80;39.20;;;;;;5077297;28;20050;-52
2023/12/19 01:23:33;;;;;;;3.95;3.03;;;20.80;39.20;;;;;;5077557;28;20068;-52
2023/12/19 01:26:00;;;;;;;3.55;2.80;;;20.80;39.20;;;;;;5077130;28;20461;-50
2023/12/19 01:28:25;;;;;;;4.15;2.67;;;20.80;39.20;;;;;;5075929;28;20120;-52
2023/12/19 01:30:51;;;;;;;3.47;2.55;;;20.80;39.20;;;;;;5060335;28;20124;-53
2023/12/19 01:33:17;;;;;;;3.47;2.75;;;20.70;39.20;;;;;;5069476;28;20033;-48
2023/12/19 01:35:43;;;;;;;4.20;2.75;;;20.80;39.30;;;;;;5059184;28;20043;-46
2023/12/19 01:38:09;;;;;;;4.53;3.30;;;20.70;39.30;;;;;;5076872;28;20040;-53
2023/12/19 01:40:35;;;;;;;4.28;3.03;;;20.70;39.30;;;;;;5076934;28;20032;-49
2023/12/19 01:43:01;;;;;;;3.50;2.70;;;20.70;39.30;;;;;;5077536;28;20039;-52
2023/12/19 01:45:29;;;;;;;3.95;2.60;;;20.70;39.30;;;;;;5050821;28;20063;-54
2023/12/19 01:47:55;;;;;;;5.35;3.00;;;20.70;39.30;;;;;;5056125;28;20032;-52
2023/12/19 01:50:21;;;;;;;4.45;2.85;;;20.70;39.30;;;;;;5057046;28;20052;-52
2023/12/19 01:52:56;;;;;;;4.07;2.95;;;20.70;39.40;;;;;;5071580;28;20040;-53
2023/12/19 01:55:27;;;;;;;3.60;2.80;;;20.70;39.40;;;;;;5056118;28;20025;-53
2023/12/19 01:57:57;;;;;;;3.80;2.70;;;20.70;39.40;;;;;;5077191;28;20064;-55
2023/12/19 02:00:23;;;;;;;3.47;2.53;;;20.70;39.40;;;;;;5076117;28;20123;-52
2023/12/19 02:02:52;;;;;;;4.53;2.97;;;20.70;39.40;;;;;;5064053;28;20029;-48
2023/12/19 02:05:19;;;;;;;3.78;2.75;;;20.70;39.50;;;;;;5072865;28;20029;-49
2023/12/19 02:07:45;;;;;;;3.92;2.90;;;20.60;39.40;;;;;;5061130;28;20370;-51
2023/12/19 02:10:11;;;;;;;4.03;3.22;;;20.60;39.40;;;;;;5055433;28;20043;-46
2023/12/19 02:12:38;;;;;;;3.45;2.67;;;20.70;39.50;;;;;;5073322;28;20078;-47
2023/12/19 02:15:05;;;;;;;4.13;2.90;;;20.60;39.50;;;;;;5075199;28;20050;-50
2023/12/19 02:17:31;;;;;;;3.20;2.40;;;20.60;39.50;;;;;;5065790;28;20044;-48
2023/12/19 02:19:57;;;;;;;3.45;2.70;;;20.60;39.50;;;;;;5074579;28;20029;-49
2023/12/19 02:22:22;;;;;;;3.78;2.72;;;20.60;39.50;;;;;;5074743;28;20111;-56
2023/12/19 02:24:48;;;;;;;4.15;2.70;;;20.60;39.50;;;;;;5058499;28;20436;-48
2023/12/19 02:27:16;;;;;;;3.15;2.05;;;20.60;39.50;;;;;;5055430;28;20059;-51
2023/12/19 02:29:41;;;;;;;2.65;2.13;;;20.60;39.60;;;;;;5055334;28;20079;-47
2023/12/19 02:32:07;;;;;;;4.22;3.15;;;20.60;39.60;;;;;;5073086;28;20060;-48
2023/12/19 02:34:33;;;;;;;3.65;2.80;;;20.60;39.60;;;;;;5056291;28;20035;-48
2023/12/19 02:36:59;;;;;;;3.70;2.55;;;20.60;39.70;;;;;;5057002;28;20075;-52
2023/12/19 02:39:25;;;;;;;3.38;2.53;;;20.60;39.70;;;;;;5056019;28;20029;-50
2023/12/19 02:41:51;;;;;;;3.10;2.70;;;20.60;39.70;;;;;;5056158;28;20048;-52
2023/12/19 02:44:16;;;;;;;4.43;2.80;;;20.60;39.70;;;;;;5055858;28;20033;-50
2023/12/19 02:46:42;;;;;;;3.83;2.83;;;20.60;39.70;;;;;;5045309;28;20024;-49
2023/12/19 02:49:08;;;;;;;3.50;2.20;;;20.60;39.70;;;;;;5072844;28;20027;-49
2023/12/19 02:51:34;;;;;;;2.72;2.42;;;20.60;39.70;;;;;;5055921;28;20378;-55
2023/12/19 02:54:00;;;;;;;4.15;3.00;;;20.50;39.70;;;;;;5056076;28;20033;-54
2023/12/19 02:56:28;;;;;;;3.78;2.65;;;20.50;39.80;;;;;;5060251;28;20043;-55
2023/12/19 02:58:54;;;;;;;3.40;2.58;;;20.50;39.80;;;;;;5065488;28;20033;-53
2023/12/19 03:01:19;;;;;;;2.35;2.13;;;20.50;39.80;;;;;;5075233;28;20072;-51
2023/12/19 03:03:45;;;;;;;3.28;2.63;;;20.50;39.80;;;;;;5073731;28;20041;-52
2023/12/19 03:06:14;;;;;;;3.67;2.80;;;20.50;39.80;;;;;;5039520;28;20508;-50
2023/12/19 03:08:47;;;;;;;3.67;2.45;;;20.50;39.80;;;;;;5064510;28;20058;-53
2023/12/19 03:11:16;;;;;;;3.22;2.53;;;20.50;39.80;;;;;;5075746;28;20502;-49
2023/12/19 03:13:42;;;;;;;3.28;2.40;;;20.50;39.80;;;;;;5075328;28;20028;-50
2023/12/19 03:16:08;;;;;;;3.83;2.47;;;20.50;39.80;;;;;;5073981;28;20028;-49
2023/12/19 03:18:34;;;;;;;3.60;2.65;;;20.50;39.90;;;;;;5058984;28;20037;-51
2023/12/19 03:21:00;;;;;;;2.83;2.30;;;20.50;39.90;;;;;;5037729;28;20037;-52
2023/12/19 03:23:27;;;;;;;3.97;2.30;;;20.50;39.90;;;;;;5051310;28;20087;-50
2023/12/19 03:25:53;;;;;;;3.63;2.42;;;20.50;39.90;;;;;;5055235;28;20025;-56
2023/12/19 03:28:18;;;;;;;2.78;2.38;;;20.50;39.90;;;;;;5056615;28;20486;-56
2023/12/19 03:30:44;;;;;;;4.63;2.60;;;20.50;39.90;;;;;;5075282;28;20040;-49
2023/12/19 03:33:10;;;;;;;3.25;2.58;;;20.50;40.00;;;;;;5072850;28;20093;-48
2023/12/19 03:35:36;;;;;;;3.78;2.70;;;20.50;40.00;;;;;;5054921;28;20356;-50
2023/12/19 03:38:02;;;;;;;3.92;2.88;;;20.50;40.00;;;;;;5071487;28;20413;-49
2023/12/19 03:40:28;;;;;;;3.33;2.50;;;20.50;40.00;;;;;;5055484;28;20032;-50
2023/12/19 03:42:53;;;;;;;3.80;2.58;;;20.40;40.00;;;;;;5073911;28;20067;-53
2023/12/19 03:45:19;;;;;;;3.88;2.72;;;20.40;40.00;;;;;;5075104;28;20060;-56
2023/12/19 03:47:45;;;;;;;3.95;3.03;;;20.50;40.00;;;;;;5074991;28;20028;-55
2023/12/19 03:50:11;;;;;;;4.47;2.92;;;20.40;40.00;;;;;;5071271;28;20105;-47
2023/12/19 03:52:37;;;;;;;3.03;2.45;;;20.40;40.00;;;;;;5065759;28;20040;-50
2023/12/19 03:55:03;;;;;;;4.35;2.70;;;20.40;40.00;;;;;;5055134;28;20029;-51
2023/12/19 03:57:29;;;;;;;3.42;2.58;;;20.40;40.00;;;;;;5055040;28;20049;-50
2023/12/19 03:59:55;;;;;;;2.72;2.33;;;20.40;40.00;;;;;;5055025;28;20120;-48
2023/12/19 04:02:21;;;;;;;2.97;2.15;;;20.40;40.00;;;;;;5060504;28;20348;-52
2023/12/19 04:04:47;;;;;;;3.72;2.70;;;20.40;40.00;;;;;;5056389;28;20024;-54
2023/12/19 04:07:12;;;;;;;4.05;2.60;;;20.40;40.10;;;;;;5066248;28;20086;-54
2023/12/19 04:09:38;;;;;;;3.78;2.55;;;20.40;40.10;;;;;;5073815;28;20037;-51
2023/12/19 04:12:06;;;;;;;3.30;2.53;;;20.40;40.10;;;;;;5073148;28;20452;-50
2023/12/19 04:14:33;;;;;;;3.20;2.08;;;20.40;40.10;;;;;;5041219;28;20036;-53
2023/12/19 04:16:59;;;;;;;2.85;2.33;;;20.40;40.10;;;;;;5061275;28;20037;-49
2023/12/19 04:19:25;;;;;;;2.55;1.98;;;20.30;40.10;;;;;;5060688;28;20044;-49
2023/12/19 04:21:51;;;;;;;2.85;2.20;;;20.40;40.10;;;;;;5075065;28;20105;-51
2023/12/19 04:24:19;;;;;;;3.03;2.17;;;20.30;40.10;;;;;;5058698;28;20431;-51
2023/12/19 04:26:48;;;;;;;3.03;1.92;;;20.30;40.10;;;;;;5058931;28;20032;-53
2023/12/19 04:29:14;;;;;;;2.78;2.05;;;20.30;40.10;;;;;;5058780;28;20024;-53
2023/12/19 04:31:41;;;;;;;3.13;2.30;;;20.30;40.10;;;;;;5059055;28;20396;-48
2023/12/19 04:34:07;;;;;;;2.17;1.73;;;20.30;40.20;;;;;;5058703;28;20060;-50
2023/12/19 04:36:33;;;;;;;2.58;1.80;;;20.30;40.20;;;;;;5058624;28;20102;-51
2023/12/19 04:38:59;;;;;;;2.25;1.67;;;20.30;40.20;;;;;;5064984;28;20029;-47
2023/12/19 04:41:25;;;;;;;2.10;1.67;;;20.30;40.20;;;;;;5077765;28;20352;-50
2023/12/19 04:43:51;;;;;;;2.38;1.80;;;20.30;40.20;;;;;;5077726;28;20024;-48
2023/12/19 04:46:17;;;;;;;2.40;1.70;;;20.30;40.20;;;;;;5078198;28;20025;-53
2023/12/19 04:48:43;;;;;;;2.03;1.67;;;20.30;40.30;;;;;;5059380;28;20056;-53
2023/12/19 04:51:24;;;;;;;1.90;1.55;;;20.30;40.20;;;;;;5058024;28;20108;-58
2023/12/19 04:53:50;;;;;;;2.10;1.80;;;20.30;40.30;;;;;;5074716;28;20033;-50
2023/12/19 04:56:16;;;;;;;1.73;1.48;;;20.30;40.30;;;;;;5072387;28;20033;-52
2023/12/19 04:58:44;;;;;;;2.03;1.60;;;20.30;40.30;;;;;;5058169;28;20040;-57
2023/12/19 05:01:11;;;;;;;1.75;1.20;;;20.30;40.90;;;;;;5058171;28;20033;-54
2023/12/19 05:03:39;;;;;;;2.08;1.52;;;20.30;40.30;;;;;;5057773;28;20091;-53
2023/12/19 05:06:06;;;;;;;1.50;1.30;;;20.30;40.40;;;;;;5058003;28;20033;-54
2023/12/19 05:08:32;;;;;;;1.38;1.08;;;20.30;40.40;;;;;;5060392;28;20056;-56
2023/12/19 05:10:58;;;;;;;1.17;1.02;;;20.20;40.40;;;;;;5058059;28;20428;-55
2023/12/19 05:13:25;;;;;;;1.75;1.20;;;20.30;40.40;;;;;;5067484;28;20037;-54
2023/12/19 05:15:51;;;;;;;1.92;1.27;;;20.20;40.40;;;;;;5055874;28;20037;-53
2023/12/19 05:18:18;;;;;;;1.48;1.10;;;20.20;40.40;;;;;;5063668;28;20033;-51
2023/12/19 05:20:48;;;;;;;1.38;1.10;;;20.20;40.40;;;;;;5064103;28;20090;-55
2023/12/19 05:23:14;;;;;;;1.10;1.00;;;20.20;40.40;;;;;;5077113;28;20036;-53
2023/12/19 05:25:41;;;;;;;1.35;1.00;;;20.30;40.50;;;;;;5077519;28;20477;-53
2023/12/19 05:28:07;;;;;;;1.40;1.30;;;20.20;40.50;;;;;;5069002;28;20044;-50
2023/12/19 05:30:32;;;;;;;1.30;1.13;;;20.20;40.50;;;;;;5037612;28;20026;-53
2023/12/19 05:32:58;;;;;;;1.20;1.02;;;20.20;40.50;;;;;;5037555;28;20025;-49
2023/12/19 05:35:24;;;;;;;1.23;1.13;;;20.20;40.50;;;;;;5053341;28;20110;-52
2023/12/19 05:37:50;;;;;;;1.42;1.33;;;20.20;40.60;;;;;;5061160;28;20044;-51
2023/12/19 05:40:17;;;;;;;1.38;1.08;;;20.20;40.60;;;;;;5042193;28;20065;-50
2023/12/19 05:42:43;;;;;;;1.13;1.00;;;20.20;40.60;;;;;;5037342;28;20400;-52
2023/12/19 05:45:09;;;;;;;1.25;1.00;;;20.20;40.60;;;;;;5037607;28;20095;-47
2023/12/19 05:47:36;;;;;;;1.85;1.20;;;20.20;40.60;;;;;;5053863;28;20024;-50
2023/12/19 05:50:02;;;;;;;1.45;1.20;;;20.20;40.70;;;;;;5057580;28;20052;-49
2023/12/19 05:52:28;;;;;;;1.27;1.00;;;20.10;40.60;;;;;;5076927;28;20028;-53
2023/12/19 05:54:54;;;;;;;1.33;1.17;;;20.20;40.80;;;;;;5075046;28;20032;-52
2023/12/19 05:57:20;;;;;;;1.92;1.58;;;20.10;40.70;;;;;;5058938;28;20116;-48
2023/12/19 05:59:46;;;;;;;1.58;1.08;;;20.10;40.80;;;;;;5049143;28;20032;-54
2023/12/19 06:02:11;;;;;;;1.42;1.20;;;20.10;40.80;;;;;;5076671;28;20097;-52
2023/12/19 06:04:37;;;;;;;1.30;1.20;;;20.10;40.80;;;;;;5062201;28;20102;-49
2023/12/19 06:07:03;;;;;;;1.20;1.08;;;20.10;40.80;;;;;;5058254;28;20036;-52
2023/12/19 06:09:31;;;;;;;1.67;1.15;;;20.10;40.90;;;;;;5057506;28;20352;-50
2023/12/19 06:11:57;;;;;;;2.45;1.35;;;20.10;40.90;;;;;;5038768;28;20091;-53
2023/12/19 06:14:23;;;;;;;1.92;1.30;;;20.10;40.90;;;;;;5056755;28;20090;-52
2023/12/19 06:16:49;;;;;;;1.52;1.02;;;20.10;41.00;;;;;;5060968;28;20523;-49
2023/12/19 06:19:15;;;;;;;1.58;1.48;;;20.10;41.00;;;;;;5063368;28;20149;-52
2023/12/19 06:21:41;;;;;;;1.27;1.00;;;20.10;41.00;;;;;;5056651;28;20440;-49
2023/12/19 06:24:07;;;;;;;1.58;1.35;;;20.10;41.10;;;;;;5057692;28;20218;-49
2023/12/19 06:26:33;;;;;;;1.52;1.20;;;20.10;41.10;;;;;;5064761;28;20465;-51
2023/12/19 06:29:00;;;;;;;1.95;1.42;;;20.10;41.10;;;;;;5054980;28;20056;-55
2023/12/19 06:31:25;;;;;;;1.23;1.10;;;20.10;41.10;;;;;;5076405;28;20033;-52
2023/12/19 06:33:51;;;;;;;1.40;1.30;;;20.10;41.20;;;;;;5068239;28;20104;-55
2023/12/19 06:36:32;;;;;;;1.50;1.40;;;20.10;41.20;;;;;;5056194;28;20044;-53
2023/12/19 06:38:58;;;;;;;1.42;1.33;;;20.10;41.20;;;;;;5043150;28;20033;-55
2023/12/19 06:41:24;;;;;;;1.67;1.33;;;20.10;41.20;;;;;;5059744;28;20020;-56
2023/12/19 06:43:50;;;;;;;1.27;1.10;;;20.10;41.30;;;;;;5076161;28;20059;-52
2023/12/19 06:46:17;;;;;;;1.45;1.20;;;20.10;41.30;;;;;;5076317;28;20086;-54
2023/12/19 06:48:43;;;;;;;1.60;1.30;;;20.10;41.30;;;;;;5068310;28;20020;-51
2023/12/19 06:51:10;;;;;;;1.95;1.42;;;20.10;41.30;;;;;;5075959;28;20032;-50
2023/12/19 06:53:38;;;;;;;1.50;1.23;;;20.10;41.30;;;;;;5075328;28;20035;-47
2023/12/19 06:56:04;;;;;;;2.30;1.30;;;20.10;41.40;;;;;;5075570;28;20020;-50
2023/12/19 06:58:31;;;;;;;1.30;1.20;;;20.00;41.30;;;;;;5072934;28;20470;-54
2023/12/19 07:00:57;;;;;;;1.38;1.20;;;20.00;41.40;;;;;;5075336;28;20036;-53
2023/12/19 07:03:23;;;;;;;1.60;1.40;;;20.00;41.40;;;;;;5067616;28;20029;-53
2023/12/19 07:05:49;;;;;;;1.83;1.35;;;20.00;41.40;;;;;;5055258;28;20036;-51
2023/12/19 07:08:15;;;;;;;2.10;1.38;;;20.00;41.40;;;;;;5061902;28;20040;-54
2023/12/19 07:10:40;;;;;;;2.10;1.70;;;20.10;41.50;;;;;;5055640;28;20040;-56
2023/12/19 07:13:06;;;;;;;2.42;1.40;;;20.00;41.40;;;;;;5055466;28;20028;-49
2023/12/19 07:15:32;;;;;;;1.58;1.27;;;20.00;41.50;;;;;;5059014;28;20040;-56
2023/12/19 07:17:58;;;;;;;1.58;1.45;;;20.00;41.50;;;;;;5061267;28;20025;-56
2023/12/19 07:20:24;;;;;;;1.45;1.23;;;20.00;41.50;;;;;;5063682;28;20086;-56
2023/12/19 07:22:49;;;;;;;1.73;1.50;;;20.00;41.50;;;;;;5017728;28;20128;-53
2023/12/19 07:25:15;;;;;;;1.88;1.50;;;20.00;41.60;;;;;;5035711;28;20037;-52
2023/12/19 07:27:41;;;;;;;1.85;1.63;;;20.00;41.60;;;;;;5065393;28;20028;-50
2023/12/19 07:30:08;;;;;;;2.10;1.38;;;20.00;41.60;;;;;;5074075;28;20533;-53
2023/12/19 07:32:33;;;;;;;1.67;1.40;;;20.00;41.60;;;;;;5064448;28;20025;-54
2023/12/19 07:34:59;;;;;;;1.92;1.50;;;20.00;41.60;;;;;;5055014;28;20502;-60
2023/12/19 07:37:25;;;;;;;1.52;1.42;;;20.00;41.70;;;;;;5056483;28;20142;-50
2023/12/19 07:39:51;;;;;;;1.63;1.50;;;20.00;41.70;;;;;;5073649;28;20094;-54
2023/12/19 07:42:17;;;;;;;1.80;1.38;;;20.00;41.70;;;;;;5044416;28;20337;-55
2023/12/19 07:44:43;;;;;;;2.45;1.58;;;20.00;41.80;;;;;;5057520;28;20024;-57
2023/12/19 07:47:09;;;;;;;2.45;1.40;;;20.00;41.80;;;;;;5069309;28;20020;-55
2023/12/19 07:49:35;;;;;;;2.60;1.50;;;20.00;41.80;;;;;;5055885;28;20040;-55
2023/12/19 07:52:00;;;;;;;2.25;1.33;;;20.00;41.80;;;;;;5064599;28;20125;-51
2023/12/19 07:54:26;;;;;;;2.92;1.60;;;20.10;41.80;;;;;;5074611;28;20025;-58
2023/12/19 07:56:52;;;;;;;5.15;1.70;;;20.10;41.80;;;;;;5066469;28;20052;-55
2023/12/19 07:59:18;;;;;;;2.95;1.42;;;20.20;41.80;;;;;;5036948;28;20317;-54
2023/12/19 08:01:48;;;;;;;2.60;1.75;;;20.20;41.80;;;;;;5054788;28;20075;-52
2023/12/19 08:04:14;;;;;;;4.25;1.92;;;20.30;41.80;;;;;;5055101;28;20033;-54
2023/12/19 08:06:41;;;;;;;3.63;1.73;;;20.40;41.80;;;;;;5037462;28;20043;-54
2023/12/19 08:09:10;;;;;;;2.75;1.48;;;20.50;41.80;;;;;;5057872;28;20024;-53
2023/12/19 08:11:36;;;;;;;2.83;1.63;;;20.50;41.70;;;;;;5054379;28;20029;-53
2023/12/19 08:14:02;;;;;;;2.92;2.05;;;20.60;41.60;;;;;;5053786;28;20108;-53
2023/12/19 08:16:28;;;;;;;2.80;1.90;;;20.70;41.60;;;;;;5052856;28;20104;-56
2023/12/19 08:18:54;;;;;;;3.33;1.77;;;20.80;41.50;;;;;;5055414;28;20135;-54
2023/12/19 08:21:20;;;;;;;2.67;1.55;;;20.90;41.50;;;;;;5061943;28;20032;-57
2023/12/19 08:23:47;;;;;;;2.90;2.08;;;20.90;41.40;;;;;;5053820;28;20075;-54
2023/12/19 08:26:13;;;;;;;3.05;2.10;;;21.00;41.40;;;;;;5061353;28;20034;-52
2023/12/19 08:28:39;;;;;;;2.30;1.42;;;21.00;41.30;;;;;;5065828;28;20029;-50
2023/12/19 08:31:04;;;;;;;2.53;1.92;;;21.10;41.20;;;;;;5072814;28;20118;-52
2023/12/19 08:33:30;;;;;;;2.67;1.80;;;21.20;41.20;;;;;;5058944;28;20036;-55
2023/12/19 08:35:56;;;;;;;2.63;1.80;;;21.30;41.80;;;;;;5061279;28;20056;-48
2023/12/19 08:38:22;;;;;;;2.60;2.10;;;21.30;41.10;;;;;;5058316;28;20123;-54
2023/12/19 08:40:48;;;;;;;2.55;1.67;;;21.40;41.00;;;;;;5066880;28;20043;-51
2023/12/19 08:43:13;;;;;;;2.53;1.60;;;21.40;40.90;;;;;;5056490;28;20447;-52
2023/12/19 08:45:41;;;;;;;3.33;1.80;;;21.50;40.90;;;;;;5037167;28;20064;-54
2023/12/19 08:48:07;;;;;;;2.17;1.60;;;21.60;40.90;;;;;;5045742;28;20029;-47
2023/12/19 08:50:33;;;;;;;2.22;1.80;;;21.60;40.80;;;;;;5054469;28;20359;-53
2023/12/19 08:52:58;;;;;;;2.58;1.83;;;21.70;40.80;;;;;;5058363;28;20474;-52
2023/12/19 08:55:24;;;;;;;3.10;1.80;;;21.70;40.70;;;;;;5045945;28;20091;-52
2023/12/19 08:57:50;;;;;;;2.38;1.63;;;21.80;40.70;;;;;;5049147;28;20120;-56
2023/12/19 09:00:17;;;;;;;2.50;1.80;;;21.80;40.60;;;;;;5066951;28;20332;-53
2023/12/19 09:02:43;;;;;;;2.40;1.65;;;21.90;40.50;;;;;;5067886;28;20036;-47
2023/12/19 09:05:13;;;;;;;2.17;1.60;;;21.90;40.40;;;;;;5068037;28;20431;-55
2023/12/19 09:07:40;;;;;;;2.55;1.50;;;22.00;40.40;;;;;;5058478;28;20029;-49
2023/12/19 09:10:07;;;;;;;1.83;1.40;;;22.00;40.40;;;;;;5058022;28;20436;-49
2023/12/19 09:12:34;;;;;;;2.65;1.65;;;22.10;40.40;;;;;;5057552;28;20090;-54
2023/12/19 09:15:02;;;;;;;2.35;1.45;;;22.10;40.30;;;;;;5057983;28;20037;-53
2023/12/19 09:17:28;;;;;;;1.70;1.40;;;22.10;40.30;;;;;;5057251;28;20041;-53
2023/12/19 09:19:55;;;;;;;2.45;1.23;;;22.10;40.30;;;;;;5039819;28;20048;-49
2023/12/19 09:22:21;;;;;;;2.55;1.67;;;22.20;40.20;;;;;;5057759;28;20036;-52
2023/12/19 09:24:47;;;;;;;1.60;1.30;;;22.20;40.20;;;;;;5057703;28;20032;-51
2023/12/19 09:27:13;;;;;;;1.77;1.30;;;22.10;40.20;;;;;;5040400;28;20025;-54
2023/12/19 09:29:40;;;;;;;1.75;1.25;;;22.20;40.20;;;;;;5057090;28;20082;-55
2023/12/19 09:32:07;;;;;;;1.40;1.10;;;22.20;40.20;;;;;;5056980;28;20029;-54
2023/12/19 09:34:42;;;;;;;1.70;1.27;;;22.20;40.20;;;;;;5057254;28;20029;-53
2023/12/19 09:37:08;;;;;;;2.65;1.20;;;22.10;40.20;;;;;;5059412;28;20048;-53
2023/12/19 09:39:34;;;;;;;1.92;0.98;;;22.20;40.20;;;;;;5056987;28;20025;-51
2023/12/19 09:42:00;;;;;;;1.50;1.00;;;22.10;40.20;;;;;;5056867;28;20424;-52
2023/12/19 09:44:26;;;;;;;1.20;1.10;;;22.10;40.20;;;;;;5057443;28;20025;-50
2023/12/19 09:46:53;;;;;;;1.77;1.25;;;22.10;40.30;;;;;;5057228;28;20063;-51
2023/12/19 09:49:22;;;;;;;1.75;1.23;;;22.10;40.30;;;;;;5056886;28;20115;-53
2023/12/19 09:51:51;;;;;;;1.42;1.00;;;22.10;40.40;;;;;;5056706;28;20032;-54
2023/12/19 09:54:22;;;;;;;2.38;1.52;;;22.10;40.40;;;;;;5056868;28;20336;-53
2023/12/19 09:56:56;;;;;;;1.48;1.20;;;22.00;40.40;;;;;;5057285;28;20029;-52
2023/12/19 09:59:22;;;;;;;1.67;1.08;;;22.00;40.40;;;;;;5056994;28;20359;-52
2023/12/19 10:01:48;;;;;;;1.38;0.98;;;22.00;40.40;;;;;;5056392;28;20028;-50
2023/12/19 10:04:14;;;;;;;1.45;0.95;;;22.00;40.40;;;;;;5056600;28;20334;-56
2023/12/19 10:06:43;;;;;;;1.13;0.95;;;22.00;40.50;;;;;;5038610;28;20056;-52
2023/12/19 10:09:13;;;;;;;1.33;1.00;;;21.90;40.40;;;;;;5055503;28;20033;-54
2023/12/19 10:11:39;;;;;;;1.35;0.93;;;21.90;40.40;;;;;;5057362;28;20052;-55
2023/12/19 10:14:17;;;;;;;1.40;1.00;;;21.90;40.50;;;;;;5063354;28;20024;-56
2023/12/19 10:16:44;;;;;;;1.83;1.20;;;21.90;40.60;;;;;;5059787;28;20056;-55
2023/12/19 10:19:16;;;;;;;1.90;1.08;;;21.90;40.70;;;;;;5050194;28;20032;-56
2023/12/19 10:21:42;;;;;;;1.83;0.90;;;21.90;40.70;;;;;;5055916;28;20037;-54
2023/12/19 10:24:13;;;;;;;1.80;1.17;;;21.80;40.80;;;;;;5056219;28;20028;-55
2023/12/19 10:26:40;;;;;;;0.90;0.70;;;21.80;40.90;;;;;;5056421;28;20466;-51
2023/12/19 10:29:06;;;;;;;1.98;1.23;;;21.80;41.00;;;;;;5056628;28;20036;-50
2023/12/19 10:31:32;;;;;;;1.90;1.15;;;21.80;41.10;;;;;;5056297;28;20021;-50
2023/12/19 10:33:58;;;;;;;1.17;0.80;;;21.80;41.20;;;;;;5055878;28;20094;-56
2023/12/19 10:36:29;;;;;;;1.15;0.90;;;21.80;41.30;;;;;;5055703;28;20040;-57
2023/12/19 10:39:05;;;;;;;0.95;0.77;;;21.80;41.40;;;;;;5055892;28;20122;-55
2023/12/19 10:41:33;;;;;;;1.02;0.88;;;21.80;41.30;;;;;;5038741;28;20033;-54
2023/12/19 10:44:00;;;;;;;1.08;0.80;;;21.70;41.30;;;;;;5056278;28;20090;-57
2023/12/19 10:46:28;;;;;;;1.50;0.90;;;21.70;41.30;;;;;;5055220;28;20112;-54
2023/12/19 10:48:58;;;;;;;0.85;0.80;;;21.70;41.30;;;;;;5037973;28;20043;-58
2023/12/19 10:51:39;;;;;;;0.80;0.80;;;21.70;41.30;;;;;;5038098;28;20029;-56
2023/12/19 10:54:13;;;;;;;1.08;0.85;;;21.70;41.30;;;;;;5066515;28;20024;-55
2023/12/19 10:57:15;;;;;;;1.38;0.93;;;21.70;41.40;;;;;;5054989;28;20047;-49
2023/12/19 11:00:10;;;;;;;1.17;0.90;;;21.70;41.40;;;;;;5055753;28;20060;-51
2023/12/19 11:02:49;;;;;;;1.00;0.93;;;21.60;41.40;;;;;;5069497;28;20028;-57
2023/12/19 11:05:30;;;;;;;2.75;0.88;;;21.60;41.50;;;;;;5057348;28;20162;-53
2023/12/19 11:08:26;;;;;;;0.95;0.77;;;21.60;41.40;;;;;;5055939;28;20463;-55
2023/12/19 11:10:56;;;;;;;1.42;0.90;;;21.60;41.40;;;;;;5024728;28;20037;-54
2023/12/19 11:13:22;;;;;;;1.42;0.88;;;21.60;41.50;;;;;;5056171;28;20379;-59
2023/12/19 11:15:55;;;;;;;1.20;1.08;;;21.60;41.50;;;;;;5059094;28;20017;-55
2023/12/19 11:18:25;;;;;;;1.33;1.17;;;21.50;41.50;;;;;;5055185;28;20040;-55
2023/12/19 11:21:01;;;;;;;2.05;1.00;;;21.50;41.50;;;;;;5056290;28;20047;-57
2023/12/19 11:23:54;;;;;;;0.82;0.82;;;21.50;41.50;;;;;;5055424;28;20078;-59
2023/12/19 11:26:29;;;;;;;1.25;1.00;;;21.50;41.50;;;;;;5055110;28;20087;-54
2023/12/19 11:28:55;;;;;;;1.38;0.90;;;21.50;41.50;;;;;;5061198;28;20339;-54
2023/12/19 11:31:35;;;;;;;0.98;0.85;;;21.50;41.50;;;;;;5069993;28;20037;-52
2023/12/19 11:34:23;;;;;;;1.00;0.82;;;21.50;41.40;;;;;;5070876;28;20073;-57
2023/12/19 11:37:03;;;;;;;0.80;0.70;;;21.50;41.40;;;;;;5071183;28;20120;-56
2023/12/19 11:39:31;;;;;;;1.30;0.73;;;21.50;41.40;;;;;;5047741;28;20056;-58
2023/12/19 11:41:57;;;;;;;1.40;0.70;;;21.40;41.40;;;;;;5064929;28;20407;-58
2023/12/19 11:44:33;;;;;;;0.80;0.65;;;21.40;41.40;;;;;;5056466;28;20075;-56
2023/12/19 11:47:21;;;;;;;2.20;0.95;;;21.40;42.00;;;;;;5059012;28;20386;-57
2023/12/19 11:49:47;;;;;;;1.23;0.80;;;21.40;41.40;;;;;;5061398;28;20033;-55
2023/12/19 11:52:33;;;;;;;1.42;0.98;;;21.40;41.40;;;;;;5045614;28;20028;-57
2023/12/19 11:55:00;;;;;;;2.25;0.70;;;21.40;41.40;;;;;;5058720;28;20364;-57
2023/12/19 11:57:25;;;;;;;0.77;0.63;;;21.40;41.50;;;;;;5060406;28;20051;-55
2023/12/19 11:59:52;;;;;;;1.33;0.95;;;21.40;41.50;;;;;;5059752;28;20033;-53
2023/12/19 12:02:30;;;;;;;1.05;0.70;;;21.30;41.50;;;;;;5058961;28;20021;-55
2023/12/19 12:05:18;;;;;;;0.85;0.70;;;21.40;41.60;;;;;;5041327;28;20460;-56
2023/12/19 12:07:49;;;;;;;1.52;0.50;;;21.30;41.50;;;;;;5058714;28;20032;-57
2023/12/19 12:10:18;;;;;;;0.70;0.65;;;21.30;41.60;;;;;;5060449;28;20044;-54
2023/12/19 12:12:44;;;;;;;2.15;0.60;;;21.30;41.70;;;;;;5065921;28;20444;-58
2023/12/19 12:15:21;;;;;;;1.23;1.08;;;21.30;41.70;;;;;;5062774;28;20029;-55
2023/12/19 12:17:48;;;;;;;0.80;0.55;;;21.30;41.80;;;;;;5058749;28;20073;-57
2023/12/19 12:20:14;;;;;;;1.77;0.80;;;21.30;41.80;;;;;;5056684;28;20032;-55
2023/12/19 12:22:40;;;;;;;0.88;0.57;;;21.30;41.80;;;;;;5043390;28;20120;-53
2023/12/19 12:25:07;;;;;;;1.45;0.80;;;21.20;41.80;;;;;;5034961;28;20021;-54
2023/12/19 12:27:33;;;;;;;2.13;0.70;;;21.20;41.80;;;;;;5042253;28;20036;-57
2023/12/19 12:30:02;;;;;;;1.25;0.80;;;21.20;41.90;;;;;;5055409;28;20044;-52
2023/12/19 12:32:28;;;;;;;1.08;0.63;;;21.20;42.00;;;;;;5066500;28;20052;-56
2023/12/19 12:34:54;;;;;;;0.70;0.55;;;21.20;42.10;;;;;;5062444;28;20021;-56
2023/12/19 12:37:21;;;;;;;3.25;0.80;;;21.20;42.30;;;;;;5062640;28;20044;-49
2023/12/19 12:39:47;;;;;;;0.82;0.70;;;21.20;42.40;;;;;;5062988;28;20040;-57
2023/12/19 12:42:19;;;;;;;1.80;1.17;;;21.20;42.40;;;;;;5062975;28;20104;-53
2023/12/19 12:44:44;;;;;;;0.93;0.80;;;21.20;42.40;;;;;;5037391;28;20035;-49
2023/12/19 12:47:10;;;;;;;1.83;0.68;;;21.20;42.50;;;;;;5061307;28;20099;-50
2023/12/19 12:49:37;;;;;;;0.93;0.70;;;21.20;43.10;;;;;;5066813;28;20334;-51